createdAt,value
2023-01-09T09:00:55.847Z,10.18
2023-01-09T09:03:23.115Z,8.73
2023-01-09T09:05:49.804Z,8.98
2023-01-09T09:08:16.556Z,6.53
2023-01-09T09:10:43.409Z,4.57
2023-01-09T09:13:10.090Z,5.15
2023-01-09T09:15:38.118Z,5.30
2023-01-09T09:18:06.972Z,5.05
2023-01-09T09:20:37.850Z,4.40
2023-01-09T09:23:05.590Z,4.30
2023-01-09T09:25:32.446Z,3.78
2023-01-09T09:28:01.029Z,2.97
2023-01-09T09:30:28.027Z,3.65
2023-01-09T09:32:54.811Z,3.70
2023-01-09T09:35:22.519Z,5.10
2023-01-09T09:38:05.230Z,6.70
2023-01-09T09:41:06.132Z,3.78
2023-01-09T09:44:32.731Z,3.88
2023-01-09T09:47:07.831Z,4.25
2023-01-09T09:50:03.361Z,3.85
2023-01-09T09:52:44.360Z,4.20
2023-01-09T09:55:41.095Z,3.90
2023-01-09T09:58:31.539Z,3.60
2023-01-09T10:01:00.990Z,4.00
2023-01-09T10:03:38.549Z,3.05
2023-01-09T10:06:15.500Z,2.92
2023-01-09T10:11:39.573Z,2.97
2023-01-09T10:14:13.222Z,3.38
2023-01-09T10:17:12.853Z,2.95
2023-01-09T10:20:03.940Z,2.95
2023-01-09T10:23:04.476Z,3.00
2023-01-09T10:25:51.027Z,2.70
2023-01-09T10:28:50.292Z,2.88
2023-01-09T10:31:19.761Z,3.22
2023-01-09T10:34:07.534Z,2.60
2023-01-09T10:36:55.986Z,2.15
2023-01-09T10:39:38.472Z,2.58
2023-01-09T10:42:21.911Z,2.20
2023-01-09T10:45:01.092Z,2.08
2023-01-09T10:47:34.412Z,1.90
2023-01-09T10:50:13.726Z,1.90
2023-01-09T10:52:42.438Z,2.15
2023-01-09T10:55:19.846Z,1.80
2023-01-09T10:57:52.439Z,1.90
2023-01-09T11:00:23.566Z,1.80
2023-01-09T11:02:54.785Z,1.65
2023-01-09T11:05:28.415Z,1.75
2023-01-09T11:08:08.234Z,1.80
2023-01-09T11:10:49.188Z,1.80
2023-01-09T11:13:22.512Z,1.58
2023-01-09T11:16:14.696Z,1.75
2023-01-09T11:18:51.645Z,1.50
2023-01-09T11:21:36.065Z,1.48
2023-01-09T11:24:27.644Z,1.23
2023-01-09T11:27:14.262Z,1.10
2023-01-09T11:29:41.690Z,1.40
2023-01-09T11:32:23.389Z,1.20
2023-01-09T11:34:50.629Z,2.28
2023-01-09T11:37:29.315Z,0.93
2023-01-09T11:39:59.166Z,1.30
2023-01-09T11:42:46.596Z,0.93
2023-01-09T11:47:44.704Z,1.10
2023-01-09T11:50:24.925Z,0.90
2023-01-09T11:53:14.813Z,1.33
2023-01-09T11:55:43.192Z,1.10
2023-01-09T11:58:18.776Z,1.20
2023-01-09T12:01:02.529Z,1.67
2023-01-09T12:04:03.750Z,1.30
2023-01-09T12:06:46.107Z,1.30
2023-01-09T12:09:26.807Z,0.90
2023-01-09T12:11:56.656Z,0.98
2023-01-09T12:14:42.692Z,0.98
2023-01-09T12:17:19.271Z,0.80
2023-01-09T12:22:37.387Z,0.75
2023-01-09T12:25:15.704Z,1.30
2023-01-09T12:28:03.520Z,1.17
2023-01-09T12:30:42.038Z,0.80
2023-01-09T12:33:27.191Z,5.70
2023-01-09T12:36:13.939Z,2.70
2023-01-09T12:38:48.249Z,1.58
2023-01-09T12:41:17.731Z,1.23
2023-01-09T12:44:05.685Z,1.65
2023-01-09T12:46:46.016Z,1.98
2023-01-09T12:49:30.238Z,1.30
2023-01-09T12:52:20.814Z,1.05
2023-01-09T12:54:53.591Z,1.35
2023-01-09T12:57:32.808Z,0.90
2023-01-09T13:00:15.419Z,1.30
2023-01-09T13:02:44.829Z,0.70
2023-01-09T13:05:35.511Z,0.68
2023-01-09T13:08:11.935Z,0.90
2023-01-09T13:10:42.108Z,1.85
2023-01-09T13:13:20.150Z,1.38
2023-01-09T13:16:04.959Z,1.05
2023-01-09T13:18:53.264Z,1.20
2023-01-09T13:21:20.851Z,1.48
2023-01-09T13:24:07.801Z,1.05
2023-01-09T13:26:48.469Z,2.80
2023-01-09T13:29:22.557Z,1.20
2023-01-09T13:32:16.732Z,2.40
2023-01-09T13:34:47.658Z,1.98
2023-01-09T13:37:28.482Z,1.30
2023-01-09T13:40:00.736Z,1.42
2023-01-09T13:42:45.983Z,0.88
2023-01-09T13:45:24.722Z,1.95
2023-01-09T13:48:11.090Z,2.70
2023-01-09T13:50:38.923Z,2.85
2023-01-09T13:53:27.104Z,2.08
2023-01-09T13:56:02.886Z,1.40
2023-01-09T13:58:32.026Z,1.50
2023-01-09T14:01:00.434Z,1.20
2023-01-09T14:03:32.806Z,0.90
2023-01-09T14:05:59.651Z,0.80
2023-01-09T14:08:32.112Z,1.10
2023-01-09T14:11:02.017Z,0.73
2023-01-09T14:14:00.131Z,0.90
2023-01-09T14:16:27.316Z,1.30
2023-01-09T14:19:05.224Z,1.10
2023-01-09T14:21:52.281Z,1.27
2023-01-09T14:24:27.296Z,0.63
2023-01-09T14:26:57.712Z,0.73
2023-01-09T14:29:43.415Z,0.43
2023-01-09T14:32:30.696Z,1.08
2023-01-09T14:35:13.747Z,1.00
2023-01-09T14:37:42.300Z,0.85
2023-01-09T14:40:21.651Z,0.68
2023-01-09T14:42:52.832Z,1.40
2023-01-09T14:45:24.041Z,1.30
2023-01-09T14:48:01.686Z,0.90
2023-01-09T14:50:38.900Z,0.90
2023-01-09T14:53:30.445Z,0.60
2023-01-09T14:55:59.217Z,0.60
2023-01-09T14:58:38.418Z,0.80
2023-01-09T15:01:12.411Z,0.75
2023-01-09T15:03:49.413Z,0.95
2023-01-09T15:09:20.230Z,0.80
2023-01-09T15:11:47.427Z,0.88
2023-01-09T15:14:43.293Z,1.10
2023-01-09T15:17:24.286Z,1.98
2023-01-09T15:19:51.876Z,1.80
2023-01-09T15:22:30.875Z,2.35
2023-01-09T15:24:58.357Z,1.88
2023-01-09T15:27:25.725Z,2.03
2023-01-09T15:29:53.321Z,1.95
2023-01-09T15:32:27.608Z,1.67
2023-01-09T15:34:55.493Z,1.75
2023-01-09T15:37:34.063Z,1.60
2023-01-09T15:40:04.319Z,2.03
2023-01-09T15:42:57.503Z,1.27
2023-01-09T15:45:33.777Z,2.08
2023-01-09T15:48:28.040Z,5.13
2023-01-09T15:51:17.817Z,11.38
2023-01-09T15:53:50.172Z,3.67
2023-01-09T15:56:30.297Z,2.42
2023-01-09T15:58:58.695Z,3.08
2023-01-09T16:01:38.885Z,2.63
2023-01-09T16:04:08.733Z,1.77
2023-01-09T16:06:45.195Z,2.13
2023-01-09T16:09:29.818Z,2.38
2023-01-09T16:12:04.019Z,2.00
2023-01-09T16:14:35.866Z,2.10
2023-01-09T16:17:16.287Z,2.22
2023-01-09T16:20:13.592Z,1.40
2023-01-09T16:22:55.789Z,1.80
2023-01-09T16:25:28.902Z,1.77
2023-01-09T16:28:08.799Z,3.78
2023-01-09T16:30:36.260Z,2.70
2023-01-09T16:33:03.448Z,2.20
2023-01-09T16:35:30.162Z,2.55
2023-01-09T16:37:56.879Z,2.83
2023-01-09T16:40:27.623Z,2.47
2023-01-09T16:43:07.178Z,3.97
2023-01-09T16:45:41.668Z,3.05
2023-01-09T16:48:18.138Z,1.98
2023-01-09T16:50:45.302Z,2.05
2023-01-09T16:53:15.928Z,2.17
2023-01-09T16:55:43.187Z,3.90
